createdAt,value
2019-03-23T00:02:22.911Z,102360.05
2019-03-23T00:04:51.357Z,102367.39
2019-03-23T00:07:20.119Z,102359.45
2019-03-23T00:09:48.568Z,102364.38
2019-03-23T00:12:17.030Z,102361.69
2019-03-23T00:14:45.946Z,102364.83
2019-03-23T00:17:14.425Z,102370.16
2019-03-23T00:19:42.854Z,102362.45
2019-03-23T00:22:11.341Z,102365.40
2019-03-23T00:24:39.792Z,102360.35
2019-03-23T00:27:08.252Z,102368.98
2019-03-23T00:29:36.713Z,102373.27
2019-03-23T00:32:05.457Z,102374.92
2019-03-23T00:34:33.900Z,102378.22
2019-03-23T00:37:02.663Z,102374.12
2019-03-23T00:39:31.117Z,102366.05
2019-03-23T00:41:59.565Z,102377.47
2019-03-23T00:44:28.023Z,102375.25
2019-03-23T00:46:56.461Z,102376.51
2019-03-23T00:49:24.920Z,102382.28
2019-03-23T00:51:53.594Z,102426.54
2019-03-23T00:54:22.028Z,102416.86
2019-03-23T00:56:50.466Z,102419.17
2019-03-23T00:59:19.648Z,102399.02
2019-03-23T01:01:48.086Z,102411.02
2019-03-23T01:04:16.811Z,102407.88
2019-03-23T01:06:52.052Z,102415.68
2019-03-23T01:09:15.667Z,102397.14
2019-03-23T01:11:44.106Z,102390.28
2019-03-23T01:14:12.978Z,102408.59
2019-03-23T01:16:41.613Z,102401.22
2019-03-23T01:19:10.072Z,102404.87
2019-03-23T01:21:38.643Z,102405.50
2019-03-23T01:24:08.458Z,102404.09
2019-03-23T01:26:37.203Z,102399.39
2019-03-23T01:29:05.684Z,102397.98
2019-03-23T01:31:34.120Z,102389.79
2019-03-23T01:34:02.573Z,102402.87
2019-03-23T01:36:31.374Z,102407.30
2019-03-23T01:38:59.838Z,102398.68
2019-03-23T01:41:28.293Z,102407.91
2019-03-23T01:43:56.752Z,102409.14
2019-03-23T01:46:25.179Z,102415.55
2019-03-23T01:48:53.615Z,102421.58
2019-03-23T01:51:22.291Z,102416.99
2019-03-23T01:53:50.738Z,102421.68
2019-03-23T01:56:19.183Z,102424.09
2019-03-23T01:58:47.920Z,102421.50
2019-03-23T02:01:16.561Z,102429.18
2019-03-23T02:03:44.990Z,102430.42
2019-03-23T02:06:13.565Z,102419.59
2019-03-23T02:08:42.005Z,102419.63
2019-03-23T02:11:10.449Z,102420.13
2019-03-23T02:13:38.925Z,102422.33
2019-03-23T02:16:07.441Z,102419.09
2019-03-23T02:18:35.881Z,102429.84
2019-03-23T02:21:05.068Z,102434.47
2019-03-23T02:23:33.510Z,102432.42
2019-03-23T02:26:02.185Z,102421.69
2019-03-23T02:28:30.696Z,102426.53
2019-03-23T02:30:59.163Z,102438.52
2019-03-23T02:33:27.591Z,102441.28
2019-03-23T02:35:56.064Z,102441.64
2019-03-23T02:38:24.502Z,102435.36
2019-03-23T02:40:52.957Z,102437.66
2019-03-23T02:43:21.433Z,102444.09
2019-03-23T02:45:49.952Z,102441.78
2019-03-23T02:48:18.395Z,102453.52
2019-03-23T02:50:47.160Z,102450.00
2019-03-23T02:53:15.632Z,102445.66
2019-03-23T02:55:44.068Z,102462.56
2019-03-23T02:58:12.617Z,102462.56
2019-03-23T03:00:41.063Z,102457.25
2019-03-23T03:03:09.520Z,102458.58
2019-03-23T03:05:38.678Z,102454.73
2019-03-23T03:08:07.127Z,102461.84
2019-03-23T03:10:39.651Z,102467.88
2019-03-23T03:13:08.734Z,102462.31
2019-03-23T03:15:37.464Z,102472.83
2019-03-23T03:18:07.135Z,102476.67
2019-03-23T03:20:35.691Z,102473.77
2019-03-23T03:23:04.169Z,102482.82
2019-03-23T03:25:32.615Z,102482.82
2019-03-23T03:28:01.361Z,102480.77
2019-03-23T03:30:29.802Z,102474.37
2019-03-23T03:32:58.473Z,102469.20
2019-03-23T03:35:26.961Z,102478.61
2019-03-23T03:37:57.092Z,102470.53
2019-03-23T03:40:25.559Z,102462.12
2019-03-23T03:42:54.053Z,102464.52
2019-03-23T03:45:27.412Z,102459.70
2019-03-23T03:47:55.917Z,102458.74
2019-03-23T03:50:24.464Z,102463.09
2019-03-23T03:52:52.911Z,102454.62
2019-03-23T03:55:21.557Z,102456.53
2019-03-23T03:57:50.105Z,102460.63
2019-03-23T04:00:18.890Z,102451.58
2019-03-23T04:02:47.317Z,102456.39
2019-03-23T04:05:15.947Z,102460.37
2019-03-23T04:07:44.408Z,102453.98
2019-03-23T04:10:12.926Z,102446.27
2019-03-23T04:12:41.812Z,102442.67
2019-03-23T04:15:11.175Z,102430.75
2019-03-23T04:17:39.618Z,102427.98
2019-03-23T04:20:10.934Z,102450.05
2019-03-23T04:22:39.380Z,102448.61
2019-03-23T04:25:09.291Z,102447.64
2019-03-23T04:27:37.960Z,102454.64
2019-03-23T04:30:09.067Z,102459.23
2019-03-23T04:32:37.817Z,102459.95
2019-03-23T04:35:07.569Z,102469.11
2019-03-23T04:37:36.012Z,102471.16
2019-03-23T04:40:06.298Z,102476.72
2019-03-23T04:42:34.923Z,102484.41
2019-03-23T04:45:04.123Z,102491.77
2019-03-23T04:47:32.863Z,102492.38
2019-03-23T04:50:01.473Z,102495.31
2019-03-23T04:52:29.882Z,102491.58
2019-03-23T04:54:58.338Z,102502.20
2019-03-23T04:57:27.168Z,102502.20
2019-03-23T04:59:55.621Z,102507.01
2019-03-23T05:02:24.129Z,102504.85
2019-03-23T05:04:52.642Z,102521.51
2019-03-23T05:07:21.681Z,102520.77
2019-03-23T05:09:50.117Z,102513.02
2019-03-23T05:12:18.667Z,102512.05
2019-03-23T05:14:47.110Z,102511.09
2019-03-23T05:17:15.610Z,102505.53
2019-03-23T05:19:44.091Z,102508.55
2019-03-23T05:22:12.751Z,102506.25
2019-03-23T05:24:41.182Z,102507.58
2019-03-23T05:27:09.654Z,102521.22
2019-03-23T05:29:38.094Z,102520.50
2019-03-23T05:32:06.533Z,102524.98
2019-03-23T05:34:35.002Z,102532.45
2019-03-23T05:37:03.526Z,102544.77
2019-03-23T05:39:32.000Z,102540.78
2019-03-23T05:42:00.868Z,102543.44
2019-03-23T05:44:29.292Z,102539.09
2019-03-23T05:46:57.999Z,102539.70
2019-03-23T05:49:26.561Z,102548.53
2019-03-23T05:51:54.990Z,102558.66
2019-03-23T05:54:23.448Z,102548.99
2019-03-23T05:56:52.170Z,102553.58
2019-03-23T05:59:20.608Z,102550.92
2019-03-23T06:01:49.125Z,102550.92
2019-03-23T06:04:17.607Z,102555.03
2019-03-23T06:06:46.038Z,102562.52
2019-03-23T06:09:14.481Z,102561.41
2019-03-23T06:11:43.459Z,102556.95
2019-03-23T06:14:11.897Z,102561.16
2019-03-23T06:16:40.349Z,102567.34
2019-03-23T06:19:08.808Z,102572.41
2019-03-23T06:21:37.365Z,102574.45
2019-03-23T06:24:05.807Z,102572.16
2019-03-23T06:26:34.767Z,102569.97
2019-03-23T06:29:03.203Z,102572.88
2019-03-23T06:31:31.715Z,102577.59
2019-03-23T06:34:00.192Z,102575.98
2019-03-23T06:36:28.834Z,102569.70
2019-03-23T06:39:05.156Z,102578.40
2019-03-23T06:41:27.516Z,102578.87
2019-03-23T06:43:55.944Z,102581.40
2019-03-23T06:46:24.425Z,102591.64
2019-03-23T06:48:53.181Z,102590.32
2019-03-23T06:51:21.724Z,102587.16
2019-03-23T06:53:50.157Z,102597.08
2019-03-23T06:56:18.785Z,102586.80
2019-03-23T06:58:47.247Z,102589.18
2019-03-23T07:01:17.195Z,102585.48
2019-03-23T07:03:45.876Z,102583.40
2019-03-23T07:06:14.328Z,102589.33
2019-03-23T07:08:42.769Z,102581.57
2019-03-23T07:11:11.611Z,102581.67
2019-03-23T07:13:40.059Z,102592.42
2019-03-23T07:16:08.504Z,102590.48
2019-03-23T07:18:37.206Z,102592.89
2019-03-23T07:21:05.637Z,102604.33
2019-03-23T07:23:34.087Z,102600.08
2019-03-23T07:26:02.602Z,102594.61
2019-03-23T07:28:31.046Z,102608.12
2019-03-23T07:30:59.502Z,102604.95
2019-03-23T07:33:27.976Z,102607.58
2019-03-23T07:35:57.716Z,102613.00
2019-03-23T07:38:26.156Z,102617.46
2019-03-23T07:40:54.627Z,102612.14
2019-03-23T07:43:23.192Z,102615.09
2019-03-23T07:45:51.632Z,102619.08
2019-03-23T07:48:20.178Z,102619.70
2019-03-23T07:50:48.623Z,102612.14
2019-03-23T07:53:17.077Z,102617.31
2019-03-23T07:55:45.800Z,102619.71
2019-03-23T07:58:14.239Z,102617.16
2019-03-23T08:00:43.240Z,102624.73
2019-03-23T08:03:11.756Z,102630.30
2019-03-23T08:05:40.258Z,102629.17
2019-03-23T08:08:08.706Z,102629.59
2019-03-23T08:10:37.265Z,102622.58
2019-03-23T08:13:05.778Z,102629.22
2019-03-23T08:15:34.242Z,102628.10
2019-03-23T08:18:03.198Z,102631.22
2019-03-23T08:20:31.833Z,102628.65
2019-03-23T08:23:00.267Z,102626.80
2019-03-23T08:25:28.732Z,102623.87
2019-03-23T08:27:57.366Z,102628.34
2019-03-23T08:30:25.801Z,102635.45
2019-03-23T08:32:54.298Z,102635.84
2019-03-23T08:35:22.744Z,102635.05
2019-03-23T08:37:51.454Z,102632.56
2019-03-23T08:40:20.360Z,102628.27
2019-03-23T08:42:48.783Z,102628.34
2019-03-23T08:45:17.251Z,102630.84
2019-03-23T08:47:45.991Z,102635.98
2019-03-23T08:50:14.554Z,102644.69
2019-03-23T08:52:43.019Z,102644.10
2019-03-23T08:55:11.476Z,102654.48
2019-03-23T08:57:41.434Z,102657.31
2019-03-23T09:00:10.361Z,102657.27
2019-03-23T09:02:39.144Z,102653.58
2019-03-23T09:05:08.822Z,102660.60
2019-03-23T09:07:37.441Z,102655.16
2019-03-23T09:10:08.208Z,102659.98
2019-03-23T09:12:36.958Z,102654.03
2019-03-23T09:15:08.312Z,102659.36
2019-03-23T09:17:36.993Z,102652.43
2019-03-23T09:20:09.511Z,102653.85
2019-03-23T09:22:38.056Z,102652.81
2019-03-23T09:25:07.486Z,102662.70
2019-03-23T09:27:36.872Z,102656.95
2019-03-23T09:30:08.837Z,102653.74
2019-03-23T09:32:37.302Z,102652.84
2019-03-23T09:35:06.500Z,102656.86
2019-03-23T09:37:38.074Z,102666.59
2019-03-23T09:40:11.038Z,102671.42
2019-03-23T09:42:37.464Z,102677.47
2019-03-23T09:45:08.293Z,102675.70
2019-03-23T09:47:37.562Z,102658.36
2019-03-23T09:50:09.244Z,102659.42
2019-03-23T09:52:37.934Z,102659.42
2019-03-23T09:55:08.051Z,102662.44
2019-03-23T09:57:36.707Z,102667.86
2019-03-23T10:00:08.560Z,102667.58
2019-03-23T10:02:37.058Z,102676.30
2019-03-23T10:05:07.432Z,102683.32
2019-03-23T10:07:36.144Z,102683.09
2019-03-23T10:10:05.449Z,102690.89
2019-03-23T10:12:33.874Z,102695.17
2019-03-23T10:15:02.338Z,102694.11
2019-03-23T10:17:31.069Z,102700.86
2019-03-23T10:19:59.511Z,102702.61
2019-03-23T10:22:27.950Z,102694.53
2019-03-23T10:24:56.423Z,102699.16
2019-03-23T10:27:24.853Z,102695.51
2019-03-23T10:29:53.309Z,102691.36
2019-03-23T10:32:21.976Z,102688.77
2019-03-23T10:34:50.410Z,102690.03
2019-03-23T10:37:18.858Z,102691.80
2019-03-23T10:39:47.604Z,102691.88
2019-03-23T10:42:16.320Z,102696.94
2019-03-23T10:44:45.023Z,102690.74
2019-03-23T10:47:13.664Z,102699.06
2019-03-23T10:49:42.109Z,102707.69
2019-03-23T10:52:10.544Z,102700.16
2019-03-23T10:54:39.325Z,102710.84
2019-03-23T10:57:07.762Z,102693.13
2019-03-23T10:59:36.242Z,102682.19
2019-03-23T11:02:04.935Z,102689.28
2019-03-23T11:04:33.373Z,102693.52
2019-03-23T11:07:01.884Z,102695.89
2019-03-23T11:09:30.735Z,102701.23
2019-03-23T11:11:59.349Z,102719.91
2019-03-23T11:14:27.865Z,102720.42
2019-03-23T11:16:56.485Z,102718.03
2019-03-23T11:19:24.919Z,102717.83
2019-03-23T11:21:53.409Z,102715.16
2019-03-23T11:24:21.889Z,102713.91
2019-03-23T11:26:50.341Z,102721.25
2019-03-23T11:29:18.856Z,102727.45
2019-03-23T11:31:47.333Z,102733.92
2019-03-23T11:34:18.003Z,102735.03
2019-03-23T11:36:46.041Z,102744.87
2019-03-23T11:39:14.503Z,102742.20
2019-03-23T11:41:42.989Z,102744.53
2019-03-23T11:44:11.493Z,102751.39
2019-03-23T11:46:40.573Z,102754.25
2019-03-23T11:49:09.057Z,102745.59
2019-03-23T11:51:37.641Z,102751.33
2019-03-23T11:54:08.312Z,102759.33
2019-03-23T11:56:37.065Z,102753.02
2019-03-23T11:59:05.627Z,102750.70
2019-03-23T12:01:34.316Z,102747.77
2019-03-23T12:04:03.579Z,102747.48
2019-03-23T12:06:32.225Z,102746.51
2019-03-23T12:09:00.926Z,102750.87
2019-03-23T12:11:29.616Z,102750.52
2019-03-23T12:13:58.158Z,102750.16
2019-03-23T12:16:26.749Z,102756.75
2019-03-23T12:18:55.196Z,102756.30
2019-03-23T12:21:23.725Z,102763.05
2019-03-23T12:23:52.648Z,102772.17
2019-03-23T12:26:23.769Z,102772.91
2019-03-23T12:28:52.258Z,102783.11
2019-03-23T12:31:21.705Z,102788.21
2019-03-23T12:33:50.507Z,102795.39
2019-03-23T12:36:19.006Z,102783.38
2019-03-23T12:38:48.058Z,102788.19
2019-03-23T12:41:23.009Z,102778.87
2019-03-23T12:43:48.048Z,102785.03
2019-03-23T12:46:16.881Z,102784.30
2019-03-23T12:48:45.621Z,102790.20
2019-03-23T12:51:14.142Z,102789.73
2019-03-23T12:53:42.850Z,102796.63
2019-03-23T12:56:11.929Z,102796.50
2019-03-23T12:58:41.631Z,102799.05
2019-03-23T13:01:10.941Z,102800.17
2019-03-23T13:03:41.159Z,102788.61
2019-03-23T13:06:12.536Z,102791.84
2019-03-23T13:08:41.745Z,102795.78
2019-03-23T13:11:11.101Z,102788.02
2019-03-23T13:13:39.974Z,102783.14
2019-03-23T13:16:15.149Z,102784.92
2019-03-23T13:18:48.755Z,102790.28
2019-03-23T13:21:17.837Z,102779.67
2019-03-23T13:23:48.472Z,102780.03
2019-03-23T13:26:19.463Z,102780.69
2019-03-23T13:28:48.348Z,102785.39
2019-03-23T13:31:17.974Z,102787.23
2019-03-23T13:33:47.219Z,102776.50
2019-03-23T13:36:18.996Z,102779.78
2019-03-23T13:38:49.626Z,102774.83
2019-03-23T13:41:18.456Z,102772.52
2019-03-23T13:43:47.476Z,102775.02
2019-03-23T13:46:17.772Z,102774.55
2019-03-23T13:48:47.457Z,102772.73
2019-03-23T13:51:16.012Z,102775.27
2019-03-23T13:53:44.767Z,102775.02
2019-03-23T13:56:13.231Z,102787.97
2019-03-23T13:58:41.990Z,102784.70
2019-03-23T14:01:12.691Z,102782.41
2019-03-23T14:03:41.408Z,102788.11
2019-03-23T14:06:09.839Z,102786.17
2019-03-23T14:08:38.427Z,102784.79
2019-03-23T14:11:06.936Z,102773.38
2019-03-23T14:13:35.506Z,102774.06
2019-03-23T14:16:04.505Z,102776.70
2019-03-23T14:18:33.151Z,102775.02
2019-03-23T14:21:03.256Z,102771.28
2019-03-23T14:23:32.508Z,102775.86
2019-03-23T14:26:03.756Z,102778.92
2019-03-23T14:28:32.419Z,102776.69
2019-03-23T14:31:01.305Z,102772.50
2019-03-23T14:33:29.764Z,102772.63
2019-03-23T14:36:00.615Z,102784.22
2019-03-23T14:38:36.171Z,102782.13
2019-03-23T14:41:07.941Z,102781.22
2019-03-23T14:43:37.644Z,102781.88
2019-03-23T14:46:10.701Z,102775.86
2019-03-23T14:48:41.108Z,102768.36
2019-03-23T14:51:14.713Z,102780.64
2019-03-23T14:53:45.540Z,102790.77
2019-03-23T14:56:19.106Z,102787.59
2019-03-23T14:58:49.117Z,102795.87
2019-03-23T15:01:40.419Z,102788.83
2019-03-23T15:04:12.333Z,102789.82
2019-03-23T15:06:42.102Z,102800.22
2019-03-23T15:09:15.864Z,102805.97
2019-03-23T15:11:47.739Z,102798.56
2019-03-23T15:14:21.296Z,102799.73
2019-03-23T15:16:54.359Z,102808.66
2019-03-23T15:19:31.571Z,102810.16
2019-03-23T15:22:02.681Z,102813.53
2019-03-23T15:24:33.738Z,102803.28
2019-03-23T15:27:05.465Z,102806.30
2019-03-23T15:29:38.319Z,102816.14
2019-03-23T15:32:11.213Z,102810.47
2019-03-23T15:34:43.777Z,102813.37
2019-03-23T15:37:16.649Z,102824.39
2019-03-23T15:39:50.126Z,102827.41
2019-03-23T15:42:24.624Z,102825.22
2019-03-23T15:44:50.873Z,102832.65
2019-03-23T15:47:24.749Z,102835.43
2019-03-23T15:50:02.554Z,102837.77
2019-03-23T15:52:34.799Z,102833.44
2019-03-23T15:55:05.644Z,102825.55
2019-03-23T15:57:34.903Z,102828.28
2019-03-23T16:00:09.506Z,102836.29
2019-03-23T16:02:53.608Z,102850.73
2019-03-23T16:05:24.921Z,102846.38
2019-03-23T16:07:53.911Z,102845.98
2019-03-23T16:10:25.067Z,102853.50
2019-03-23T16:12:55.866Z,102854.27
2019-03-23T16:15:29.992Z,102860.31
2019-03-23T16:18:01.717Z,102863.88
2019-03-23T16:20:33.534Z,102851.83
2019-03-23T16:23:04.380Z,102853.89
2019-03-23T16:25:39.284Z,102857.27
2019-03-23T16:28:12.129Z,102874.36
2019-03-23T16:30:48.224Z,102865.28
2019-03-23T16:33:17.571Z,102871.09
2019-03-23T16:35:47.603Z,102868.75
2019-03-23T16:38:18.832Z,102872.32
2019-03-23T16:40:51.776Z,102870.04
2019-03-23T16:43:21.179Z,102862.39
2019-03-23T16:45:50.395Z,102857.77
2019-03-23T16:48:20.336Z,102861.09
2019-03-23T16:50:51.482Z,102872.08
2019-03-23T16:53:21.358Z,102873.75
2019-03-23T16:55:54.116Z,102884.56
2019-03-23T16:58:23.824Z,102883.38
2019-03-23T17:00:54.493Z,102877.29
2019-03-23T17:03:27.819Z,102872.92
2019-03-23T17:05:56.615Z,102881.42
2019-03-23T17:08:25.430Z,102889.19
2019-03-23T17:10:54.665Z,102896.48
2019-03-23T17:13:25.229Z,102894.11
2019-03-23T17:15:54.468Z,102911.02
2019-03-23T17:18:23.055Z,102901.91
2019-03-23T17:20:51.743Z,102899.09
2019-03-23T17:23:20.564Z,102900.02
2019-03-23T17:25:51.286Z,102909.42
2019-03-23T17:28:19.767Z,102905.09
2019-03-23T17:30:48.310Z,102911.80
2019-03-23T17:33:16.829Z,102906.27
2019-03-23T17:35:45.286Z,102912.70
2019-03-23T17:38:15.190Z,102907.52
2019-03-23T17:40:43.881Z,102911.53
2019-03-23T17:43:12.327Z,102905.11
2019-03-23T17:45:40.835Z,102918.95
2019-03-23T17:48:09.715Z,102920.41
2019-03-23T17:50:38.230Z,102920.06
2019-03-23T17:53:06.921Z,102912.56
2019-03-23T17:55:35.372Z,102913.04
2019-03-23T17:58:04.691Z,102917.05
2019-03-23T18:00:33.227Z,102923.58
2019-03-23T18:03:01.827Z,102929.73
2019-03-23T18:05:30.730Z,102926.71
2019-03-23T18:07:59.281Z,102922.59
2019-03-23T18:10:28.325Z,102926.46
2019-03-23T18:12:56.805Z,102930.33
2019-03-23T18:15:25.779Z,102932.39
2019-03-23T18:17:54.279Z,102929.97
2019-03-23T18:20:22.763Z,102933.96
2019-03-23T18:22:51.436Z,102932.73
2019-03-23T18:25:19.907Z,102936.23
2019-03-23T18:27:48.336Z,102930.91
2019-03-23T18:30:35.338Z,102932.53
2019-03-23T18:33:05.258Z,102942.08
2019-03-23T18:35:33.819Z,102953.94
2019-03-23T18:38:03.364Z,102949.55
2019-03-23T18:40:33.150Z,102950.87
2019-03-23T18:43:01.610Z,102946.02
2019-03-23T18:45:30.190Z,102940.31
2019-03-23T18:47:58.796Z,102948.65
2019-03-23T18:50:28.974Z,102950.30
2019-03-23T18:52:57.715Z,102953.31
2019-03-23T18:55:29.005Z,102959.81
2019-03-23T18:57:58.039Z,102960.27
2019-03-23T19:00:39.075Z,102965.43
2019-03-23T19:03:07.648Z,102966.98
2019-03-23T19:05:36.667Z,102961.80
2019-03-23T19:08:05.674Z,102968.06
2019-03-23T19:10:35.851Z,102961.16
2019-03-23T19:13:05.973Z,102955.60
2019-03-23T19:15:35.012Z,102966.72
2019-03-23T19:18:03.814Z,102979.36
2019-03-23T19:20:32.387Z,102981.77
2019-03-23T19:23:00.939Z,102986.34
2019-03-23T19:25:29.577Z,102981.03
2019-03-23T19:27:58.194Z,102993.57
2019-03-23T19:30:26.730Z,102990.55
2019-03-23T19:32:55.212Z,102997.77
2019-03-23T19:35:23.726Z,102990.39
2019-03-23T19:37:52.216Z,102991.35
2019-03-23T19:40:20.833Z,102995.34
2019-03-23T19:42:49.721Z,102985.30
2019-03-23T19:45:18.636Z,102989.28
2019-03-23T19:47:47.169Z,102984.93
2019-03-23T19:50:17.305Z,102990.09
2019-03-23T19:52:46.015Z,102986.70
2019-03-23T19:55:14.990Z,102988.23
2019-03-23T19:57:43.936Z,102982.69
2019-03-23T20:00:13.128Z,102981.86
2019-03-23T20:02:41.687Z,102997.41
2019-03-23T20:05:14.458Z,102995.72
2019-03-23T20:07:43.329Z,102997.72
2019-03-23T20:10:12.449Z,102995.41
2019-03-23T20:12:41.444Z,102992.84
2019-03-23T20:15:10.583Z,102998.64
2019-03-23T20:17:39.245Z,103005.48
2019-03-23T20:20:09.562Z,103011.02
2019-03-23T20:22:38.201Z,103006.88
2019-03-23T20:25:07.398Z,103010.70
2019-03-23T20:27:37.074Z,103010.91
2019-03-23T20:30:12.922Z,103012.48
2019-03-23T20:32:41.418Z,103009.08
2019-03-23T20:35:11.097Z,103007.97
2019-03-23T20:37:39.711Z,103010.83
2019-03-23T20:40:09.601Z,102999.48
2019-03-23T20:42:43.963Z,103000.05
2019-03-23T20:45:15.571Z,103000.64
2019-03-23T20:47:45.783Z,103002.09
2019-03-23T20:50:15.027Z,103007.85
2019-03-23T20:52:44.526Z,103010.72
2019-03-23T20:55:24.389Z,103006.86
2019-03-23T20:57:54.132Z,103011.80
2019-03-23T21:00:23.700Z,103007.53
2019-03-23T21:02:52.308Z,103005.83
2019-03-23T21:05:33.050Z,103013.78
2019-03-23T21:07:55.347Z,103010.76
2019-03-23T21:10:25.585Z,103004.71
2019-03-23T21:12:54.084Z,103005.66
2019-03-23T21:15:22.689Z,103012.41
2019-03-23T21:17:52.530Z,103008.93
2019-03-23T21:20:22.263Z,103013.37
2019-03-23T21:22:51.383Z,103018.79
2019-03-23T21:25:23.298Z,103014.44
2019-03-23T21:27:55.663Z,103012.74
2019-03-23T21:30:23.705Z,103020.32
2019-03-23T21:32:52.377Z,103014.64
2019-03-23T21:35:21.801Z,103013.32
2019-03-23T21:37:50.778Z,103012.58
2019-03-23T21:40:19.259Z,103014.48
2019-03-23T21:42:47.691Z,103012.78
2019-03-23T21:45:16.645Z,103007.85
2019-03-23T21:47:46.904Z,103005.95
2019-03-23T21:50:15.883Z,103005.00
2019-03-23T21:52:44.333Z,103008.02
2019-03-23T21:55:13.302Z,103003.83
2019-03-23T21:57:41.755Z,102998.53
2019-03-23T22:00:11.272Z,102992.86
2019-03-23T22:02:39.777Z,102986.22
2019-03-23T22:05:09.470Z,102984.53
2019-03-23T22:07:37.910Z,102990.87
2019-03-23T22:10:08.082Z,102999.57
2019-03-23T22:12:36.725Z,102994.27
2019-03-23T22:15:10.259Z,102995.13
2019-03-23T22:17:38.975Z,102990.78
2019-03-23T22:20:09.477Z,102982.91
2019-03-23T22:22:37.918Z,102990.87
2019-03-23T22:25:07.665Z,102990.50
2019-03-23T22:27:37.393Z,102988.42
2019-03-23T22:30:11.545Z,102982.37
2019-03-23T22:32:39.989Z,102982.25
2019-03-23T22:35:09.682Z,102975.08
2019-03-23T22:37:38.127Z,102976.48
2019-03-23T22:40:11.603Z,102977.07
2019-03-23T22:42:40.082Z,102977.56
2019-03-23T22:45:10.564Z,102976.70
2019-03-23T22:47:38.992Z,102975.37
2019-03-23T22:50:08.967Z,102977.07
2019-03-23T22:52:37.409Z,102972.14
2019-03-23T22:55:06.901Z,102976.03
2019-03-23T22:57:35.482Z,102977.36
2019-03-23T23:00:05.445Z,102972.52
2019-03-23T23:02:33.867Z,102978.77
2019-03-23T23:05:02.359Z,102978.77
2019-03-23T23:07:31.070Z,102976.12
2019-03-23T23:09:59.709Z,102979.34
2019-03-23T23:12:28.195Z,102980.67
2019-03-23T23:15:04.222Z,102973.96
2019-03-23T23:17:26.814Z,102975.66
2019-03-23T23:19:55.600Z,102963.81
2019-03-23T23:22:24.261Z,102964.77
2019-03-23T23:24:52.847Z,102967.42
2019-03-23T23:27:21.313Z,102966.59
2019-03-23T23:29:49.752Z,102971.52
2019-03-23T23:32:18.197Z,102971.39
2019-03-23T23:34:46.768Z,102980.09
2019-03-23T23:37:15.186Z,102975.28
2019-03-23T23:39:43.623Z,102977.07
2019-03-23T23:42:12.105Z,102975.16
2019-03-23T23:44:40.540Z,102978.77
2019-03-23T23:47:08.977Z,102984.07
2019-03-23T23:49:37.487Z,102987.30
2019-03-23T23:52:05.943Z,102983.91
2019-03-23T23:54:34.363Z,102984.02
2019-03-23T23:57:03.052Z,102980.50
2019-03-23T23:59:31.481Z,102980.74
